Time;durP1;ratioP1;P1;durP2;ratioP2;P2;SDS_P1;SDS_P2;PMS_P1;PMS_P2;Temp;Humidity;BMP_temperature;BMP_pressure;BME280_temperature;BME280_humidity;BME280_pressure;Samples;Min_cycle;Max_cycle;Signal;HPM_P1;HPM_P2
2023/04/05 00:00:09;;;;;;;;;;;17.20;63.80;;;;;;5072562;28;916;-69
2023/04/05 00:02:35;;;;;;;;;;;17.20;63.80;;;;;;5071094;28;1464;-69
2023/04/05 00:05:02;;;;;;;;;;;17.20;63.80;;;;;;5072803;28;1361;-69
2023/04/05 00:07:27;;;;;;;;;;;17.20;63.80;;;;;;5070853;28;1898;-70
2023/04/05 00:09:53;;;;;;;;;;;17.20;63.80;;;;;;5059452;28;1391;-69
2023/04/05 00:12:18;;;;;;;;;;;17.20;63.90;;;;;;5069936;28;1349;-69
2023/04/05 00:14:44;;;;;;;;;;;17.20;63.90;;;;;;5073063;28;1537;-69
2023/04/05 00:17:10;;;;;;;;;;;17.20;63.90;;;;;;5061242;28;1339;-70
2023/04/05 00:19:36;;;;;;;;;;;17.20;63.90;;;;;;5074895;28;1332;-69
2023/04/05 00:22:02;;;;;;;;;;;17.20;63.90;;;;;;5071934;28;1297;-69
2023/04/05 00:24:28;;;;;;;;;;;17.20;63.90;;;;;;5071790;28;1413;-68
2023/04/05 00:26:53;;;;;;;;;;;17.20;64.00;;;;;;5072789;28;1989;-69
2023/04/05 00:29:19;;;;;;;;;;;17.20;64.00;;;;;;5073133;28;915;-69
2023/04/05 00:31:44;;;;;;;;;;;17.20;64.00;;;;;;5071151;28;883;-70
2023/04/05 00:34:11;;;;;;;;;;;17.20;64.00;;;;;;5076701;28;1014;-70
2023/04/05 00:36:36;;;;;;;;;;;17.20;64.00;;;;;;5074175;28;1339;-70
2023/04/05 00:39:02;;;;;;;;;;;17.20;64.00;;;;;;5073838;28;1272;-70
2023/04/05 00:41:27;;;;;;;;;;;17.20;64.00;;;;;;5072202;28;898;-70
2023/04/05 00:43:53;;;;;;;;;;;17.20;64.00;;;;;;5069980;28;1018;-70
2023/04/05 00:46:18;;;;;;;;;;;17.20;64.00;;;;;;5068886;28;1902;-69
2023/04/05 00:48:44;;;;;;;;;;;17.20;64.00;;;;;;5077243;28;1331;-70
2023/04/05 00:51:10;;;;;;;;;;;17.20;64.00;;;;;;5073447;28;863;-69
2023/04/05 00:53:36;;;;;;;;;;;17.20;64.00;;;;;;5070194;28;887;-69
2023/04/05 00:56:02;;;;;;;;;;;17.20;64.00;;;;;;5076046;28;1256;-69
2023/04/05 00:58:28;;;;;;;;;;;17.20;64.00;;;;;;5071943;28;866;-69
2023/04/05 01:00:58;;;;;;;;;;;17.20;64.10;;;;;;5073191;28;1022;-69
2023/04/05 01:03:25;;;;;;;;;;;17.10;64.00;;;;;;5070758;28;887;-70
2023/04/05 01:05:54;;;;;;;;;;;17.20;64.10;;;;;;5072308;28;1236;-70
2023/04/05 01:08:35;;;;;;;;;;;17.20;64.10;;;;;;5072632;28;847;-69
2023/04/05 01:11:01;;;;;;;;;;;17.20;64.00;;;;;;5072122;28;937;-70
2023/04/05 01:13:28;;;;;;;;;;;17.10;64.00;;;;;;5069822;28;1077;-67
2023/04/05 01:15:53;;;;;;;;;;;17.20;64.10;;;;;;5077211;28;2129;-69
2023/04/05 01:18:20;;;;;;;;;;;17.10;64.00;;;;;;5069955;28;1348;-69
2023/04/05 01:21:03;;;;;;;;;;;17.20;64.10;;;;;;5057064;28;824;-69
2023/04/05 01:23:31;;;;;;;;;;;17.20;64.10;;;;;;5071199;28;813;-69
2023/04/05 01:26:09;;;;;;;;;;;17.10;64.00;;;;;;5072770;28;1961;-70
2023/04/05 01:28:40;;;;;;;;;;;17.20;64.10;;;;;;5073336;28;855;-70
2023/04/05 01:31:07;;;;;;;;;;;17.20;64.10;;;;;;5067836;28;815;-70
2023/04/05 01:33:36;;;;;;;;;;;17.10;64.10;;;;;;5068706;28;824;-69
2023/04/05 01:36:05;;;;;;;;;;;17.10;64.10;;;;;;5068042;28;1363;-70
2023/04/05 01:38:30;;;;;;;;;;;17.10;64.10;;;;;;5073702;28;1135;-69
2023/04/05 01:40:56;;;;;;;;;;;17.10;64.10;;;;;;5072195;28;1418;-68
2023/04/05 01:43:21;;;;;;;;;;;17.10;64.10;;;;;;5069892;28;1308;-68
2023/04/05 01:45:47;;;;;;;;;;;17.20;64.20;;;;;;5071768;28;1283;-67
2023/04/05 01:48:12;;;;;;;;;;;17.10;64.10;;;;;;5071708;28;1890;-68
2023/04/05 01:50:38;;;;;;;;;;;17.10;64.10;;;;;;5072495;28;942;-69
2023/04/05 01:53:03;;;;;;;;;;;17.10;64.20;;;;;;5068418;28;902;-69
2023/04/05 01:55:29;;;;;;;;;;;17.10;64.10;;;;;;5070658;28;1291;-69
2023/04/05 01:57:55;;;;;;;;;;;17.10;64.10;;;;;;5072052;28;894;-69
2023/04/05 02:00:21;;;;;;;;;;;17.10;64.10;;;;;;5076107;28;929;-69
2023/04/05 02:02:46;;;;;;;;;;;17.10;64.20;;;;;;5070579;28;819;-68
2023/04/05 02:05:12;;;;;;;;;;;17.10;64.10;;;;;;5070662;28;1358;-68
2023/04/05 02:07:37;;;;;;;;;;;17.10;64.10;;;;;;5070344;28;1902;-68
2023/04/05 02:10:03;;;;;;;;;;;17.10;64.10;;;;;;5072675;28;859;-68
2023/04/05 02:12:29;;;;;;;;;;;17.10;64.10;;;;;;5057828;28;1396;-68
2023/04/05 02:14:54;;;;;;;;;;;17.10;64.10;;;;;;5071011;28;1262;-68
2023/04/05 02:17:20;;;;;;;;;;;17.10;64.10;;;;;;5058314;28;1253;-69
2023/04/05 02:19:46;;;;;;;;;;;17.10;64.10;;;;;;5058732;28;1301;-70
2023/04/05 02:22:11;;;;;;;;;;;17.10;64.10;;;;;;5072415;28;1010;-70
2023/04/05 02:24:37;;;;;;;;;;;17.10;64.10;;;;;;5069110;28;1275;-71
2023/04/05 02:27:02;;;;;;;;;;;17.10;64.20;;;;;;5077262;28;1960;-70
2023/04/05 02:29:28;;;;;;;;;;;17.10;64.20;;;;;;5076580;28;1238;-69
2023/04/05 02:31:53;;;;;;;;;;;17.10;64.10;;;;;;5074463;28;803;-67
2023/04/05 02:34:20;;;;;;;;;;;17.10;64.10;;;;;;5075331;28;824;-67
2023/04/05 02:36:46;;;;;;;;;;;17.10;64.20;;;;;;5070990;28;1537;-67
2023/04/05 02:39:12;;;;;;;;;;;17.10;64.20;;;;;;5077944;28;1233;-67
2023/04/05 02:41:37;;;;;;;;;;;17.10;64.10;;;;;;5077204;28;1036;-67
2023/04/05 02:44:03;;;;;;;;;;;17.10;64.20;;;;;;5078497;28;1002;-69
2023/04/05 02:46:28;;;;;;;;;;;17.10;64.10;;;;;;5074744;28;1960;-68
2023/04/05 02:48:54;;;;;;;;;;;17.10;64.20;;;;;;5060497;28;1841;-70
2023/04/05 02:51:20;;;;;;;;;;;17.10;64.20;;;;;;5077638;28;832;-69
2023/04/05 02:53:46;;;;;;;;;;;17.10;64.20;;;;;;5071464;28;813;-70
2023/04/05 02:56:13;;;;;;;;;;;17.10;64.20;;;;;;5073195;28;1272;-70
2023/04/05 02:58:39;;;;;;;;;;;17.10;64.20;;;;;;5075307;28;872;-70
2023/04/05 03:01:06;;;;;;;;;;;17.10;64.20;;;;;;5072997;28;844;-70
2023/04/05 03:03:33;;;;;;;;;;;17.10;64.20;;;;;;5071457;28;836;-69
2023/04/05 03:06:08;;;;;;;;;;;17.10;64.20;;;;;;5076157;28;1949;-69
2023/04/05 03:08:35;;;;;;;;;;;17.10;64.20;;;;;;5077605;28;863;-69
2023/04/05 03:11:01;;;;;;;;;;;17.10;64.20;;;;;;5076188;28;927;-69
2023/04/05 03:13:26;;;;;;;;;;;17.10;64.20;;;;;;5074075;28;863;-69
2023/04/05 03:15:55;;;;;;;;;;;17.10;64.20;;;;;;5072224;28;1334;-69
2023/04/05 03:18:20;;;;;;;;;;;17.10;64.30;;;;;;5072641;28;843;-69
2023/04/05 03:20:46;;;;;;;;;;;17.10;64.20;;;;;;5072113;28;1015;-69
2023/04/05 03:23:11;;;;;;;;;;;17.10;64.20;;;;;;5074601;28;835;-69
2023/04/05 03:25:37;;;;;;;;;;;17.10;64.20;;;;;;5073461;28;1248;-70
2023/04/05 03:28:05;;;;;;;;;;;17.10;64.20;;;;;;5070207;28;1997;-70
2023/04/05 03:30:34;;;;;;;;;;;17.10;64.20;;;;;;5075537;28;878;-70
2023/04/05 03:33:03;;;;;;;;;;;17.10;64.30;;;;;;5080394;28;871;-70
2023/04/05 03:35:28;;;;;;;;;;;17.10;64.20;;;;;;5070751;28;1360;-68
2023/04/05 03:37:54;;;;;;;;;;;17.10;64.30;;;;;;5075270;28;1570;-68
2023/04/05 03:40:20;;;;;;;;;;;17.10;64.30;;;;;;5071223;28;1333;-69
2023/04/05 03:42:45;;;;;;;;;;;17.10;64.30;;;;;;5073308;28;867;-69
2023/04/05 03:45:11;;;;;;;;;;;17.10;64.30;;;;;;5073717;28;1258;-68
2023/04/05 03:47:36;;;;;;;;;;;17.10;64.30;;;;;;5072907;28;1898;-69
2023/04/05 03:50:02;;;;;;;;;;;17.10;64.20;;;;;;5071515;28;781;-71
2023/04/05 03:52:28;;;;;;;;;;;17.10;64.30;;;;;;5077360;28;866;-71
2023/04/05 03:54:53;;;;;;;;;;;17.10;64.30;;;;;;5075501;28;1244;-71
2023/04/05 03:57:19;;;;;;;;;;;17.10;64.30;;;;;;5067249;28;1002;-70
2023/04/05 03:59:45;;;;;;;;;;;17.10;64.30;;;;;;5074219;28;1540;-70
2023/04/05 04:02:10;;;;;;;;;;;17.10;64.30;;;;;;5079112;28;847;-71
2023/04/05 04:04:36;;;;;;;;;;;17.10;64.30;;;;;;5073037;28;1334;-71
2023/04/05 04:07:01;;;;;;;;;;;17.10;65.10;;;;;;5071681;28;1979;-71
2023/04/05 04:09:28;;;;;;;;;;;17.10;64.30;;;;;;5073811;28;1010;-71
2023/04/05 04:11:55;;;;;;;;;;;17.10;64.20;;;;;;5076356;28;839;-69
2023/04/05 04:14:21;;;;;;;;;;;17.10;64.20;;;;;;5071201;28;857;-68
2023/04/05 04:16:46;;;;;;;;;;;17.10;64.10;;;;;;5075122;28;1271;-68
2023/04/05 04:19:12;;;;;;;;;;;17.20;64.10;;;;;;5075065;28;832;-68
2023/04/05 04:21:38;;;;;;;;;;;17.20;64.00;;;;;;5066268;28;1050;-68
2023/04/05 04:24:04;;;;;;;;;;;17.20;63.90;;;;;;5070417;28;832;-68
2023/04/05 04:26:29;;;;;;;;;;;17.20;63.80;;;;;;5076006;28;1914;-69
2023/04/05 04:28:55;;;;;;;;;;;17.30;63.60;;;;;;5071432;28;923;-69
2023/04/05 04:31:21;;;;;;;;;;;17.30;63.50;;;;;;5072946;28;949;-68
2023/04/05 04:33:49;;;;;;;;;;;17.40;63.50;;;;;;5072034;28;914;-70
2023/04/05 04:36:16;;;;;;;;;;;17.40;63.40;;;;;;5074090;28;1267;-70
2023/04/05 04:38:43;;;;;;;;;;;17.40;63.30;;;;;;5077555;28;1094;-70
2023/04/05 04:41:16;;;;;;;;;;;17.40;63.20;;;;;;5078556;28;1756;-70
2023/04/05 04:43:42;;;;;;;;;;;17.40;63.10;;;;;;5075715;28;800;-69
2023/04/05 04:46:10;;;;;;;;;;;17.40;63.70;;;;;;5069656;28;1898;-69
2023/04/05 04:48:36;;;;;;;;;;;17.50;63.10;;;;;;5071593;28;1228;-70
2023/04/05 04:51:03;;;;;;;;;;;17.50;63.00;;;;;;5065370;28;845;-69
2023/04/05 04:53:28;;;;;;;;;;;17.50;62.90;;;;;;5071640;28;919;-70
2023/04/05 04:55:55;;;;;;;;;;;17.50;62.80;;;;;;5067294;28;1306;-70
2023/04/05 04:58:20;;;;;;;;;;;17.50;62.80;;;;;;5070136;28;883;-68
2023/04/05 05:00:47;;;;;;;;;;;17.50;62.70;;;;;;5073056;28;886;-68
2023/04/05 05:03:12;;;;;;;;;;;17.50;62.70;;;;;;5076287;28;965;-69
2023/04/05 05:05:42;;;;;;;;;;;17.60;62.70;;;;;;5081054;28;1364;-68
2023/04/05 05:08:07;;;;;;;;;;;17.60;62.70;;;;;;5058436;28;1961;-69
2023/04/05 05:10:33;;;;;;;;;;;17.60;63.40;;;;;;5073484;28;804;-68
2023/04/05 05:12:58;;;;;;;;;;;17.60;62.60;;;;;;5074387;28;855;-69
2023/04/05 05:15:23;;;;;;;;;;;17.60;62.60;;;;;;5074887;28;1333;-69
2023/04/05 05:17:52;;;;;;;;;;;17.60;62.60;;;;;;5072565;28;813;-68
2023/04/05 05:20:17;;;;;;;;;;;17.60;62.60;;;;;;5074542;28;845;-69
2023/04/05 05:22:43;;;;;;;;;;;17.60;62.60;;;;;;5072065;28;903;-70
2023/04/05 05:25:11;;;;;;;;;;;17.60;62.60;;;;;;5076517;28;1240;-70
2023/04/05 05:27:36;;;;;;;;;;;17.60;62.60;;;;;;5074301;28;1960;-68
2023/04/05 05:30:02;;;;;;;;;;;17.60;62.60;;;;;;5078604;28;855;-68
2023/04/05 05:32:27;;;;;;;;;;;17.60;62.60;;;;;;5075966;28;819;-68
2023/04/05 05:34:53;;;;;;;;;;;17.60;62.60;;;;;;5072575;28;1369;-68
2023/04/05 05:37:21;;;;;;;;;;;17.60;62.60;;;;;;5072801;28;1361;-68
2023/04/05 05:39:46;;;;;;;;;;;17.60;62.70;;;;;;5073157;28;1278;-68
2023/04/05 05:42:12;;;;;;;;;;;17.60;62.60;;;;;;5075120;28;1053;-68
2023/04/05 05:44:37;;;;;;;;;;;17.60;62.70;;;;;;5076724;28;1248;-69
2023/04/05 05:47:03;;;;;;;;;;;17.60;62.70;;;;;;5075014;28;1965;-68
2023/04/05 05:49:28;;;;;;;;;;;17.50;62.70;;;;;;5077480;28;804;-68
2023/04/05 05:51:55;;;;;;;;;;;17.60;62.80;;;;;;5080502;28;807;-68
2023/04/05 05:54:21;;;;;;;;;;;17.50;62.70;;;;;;5075173;28;879;-67
2023/04/05 05:56:46;;;;;;;;;;;17.60;62.80;;;;;;5070081;28;1793;-67
2023/04/05 05:59:12;;;;;;;;;;;17.50;62.80;;;;;;5070093;28;2098;-68
2023/04/05 06:01:41;;;;;;;;;;;17.50;62.80;;;;;;5059627;28;1836;-69
2023/04/05 06:04:07;;;;;;;;;;;17.50;62.80;;;;;;5077030;28;1511;-70
2023/04/05 06:06:33;;;;;;;;;;;17.50;62.80;;;;;;5062138;28;1965;-73
2023/04/05 06:08:58;;;;;;;;;;;17.50;62.90;;;;;;5077237;28;2131;-71
2023/04/05 06:11:24;;;;;;;;;;;17.50;62.90;;;;;;5072432;28;1330;-71
2023/04/05 06:13:54;;;;;;;;;;;17.50;62.90;;;;;;5072323;28;1361;-70
2023/04/05 06:16:19;;;;;;;;;;;17.50;62.90;;;;;;5073125;28;1244;-68
2023/04/05 06:18:45;;;;;;;;;;;17.50;63.00;;;;;;5070907;28;1029;-67
2023/04/05 06:21:10;;;;;;;;;;;17.50;63.00;;;;;;5075220;28;856;-71
2023/04/05 06:23:36;;;;;;;;;;;17.50;63.10;;;;;;5073718;28;927;-68
2023/04/05 06:26:01;;;;;;;;;;;17.50;63.10;;;;;;5075059;28;1247;-68
2023/04/05 06:28:28;;;;;;;;;;;17.50;63.10;;;;;;5073191;28;1906;-68
2023/04/05 06:30:54;;;;;;;;;;;17.40;63.00;;;;;;5069879;28;859;-69
2023/04/05 06:33:20;;;;;;;;;;;17.40;63.00;;;;;;5078883;28;904;-69
2023/04/05 06:35:45;;;;;;;;;;;17.50;63.10;;;;;;5079096;28;1269;-70
2023/04/05 06:38:11;;;;;;;;;;;17.40;63.10;;;;;;5076716;28;1102;-70
2023/04/05 06:40:36;;;;;;;;;;;17.40;63.10;;;;;;5061754;28;1311;-71
2023/04/05 06:43:02;;;;;;;;;;;17.40;63.10;;;;;;5072130;28;1398;-73
2023/04/05 06:45:27;;;;;;;;;;;17.40;63.20;;;;;;5076592;28;1239;-71
2023/04/05 06:47:53;;;;;;;;;;;17.40;63.20;;;;;;5073388;28;1901;-71
2023/04/05 06:50:18;;;;;;;;;;;17.40;63.20;;;;;;5073939;28;946;-72
2023/04/05 06:52:44;;;;;;;;;;;17.40;63.20;;;;;;5066831;28;1264;-69
2023/04/05 06:55:09;;;;;;;;;;;17.40;63.30;;;;;;5061536;28;1318;-69
2023/04/05 06:57:35;;;;;;;;;;;17.40;63.30;;;;;;5073889;28;837;-69
2023/04/05 07:00:00;;;;;;;;;;;17.40;63.30;;;;;;5074184;28;1285;-70
2023/04/05 07:02:26;;;;;;;;;;;17.40;63.40;;;;;;5068012;28;867;-70
2023/04/05 07:04:52;;;;;;;;;;;17.40;63.40;;;;;;5074928;28;1271;-69
2023/04/05 07:07:17;;;;;;;;;;;17.40;63.40;;;;;;5078632;28;1906;-69
2023/04/05 07:09:43;;;;;;;;;;;17.40;63.40;;;;;;5069545;28;859;-69
2023/04/05 07:12:08;;;;;;;;;;;17.40;63.50;;;;;;5070495;28;911;-69
2023/04/05 07:14:34;;;;;;;;;;;17.40;63.50;;;;;;5057217;28;1277;-69
2023/04/05 07:17:00;;;;;;;;;;;17.40;63.50;;;;;;5078569;28;847;-69
2023/04/05 07:19:25;;;;;;;;;;;17.40;63.50;;;;;;5069829;28;863;-69
2023/04/05 07:21:51;;;;;;;;;;;17.40;63.50;;;;;;5074042;28;1017;-70
2023/04/05 07:24:16;;;;;;;;;;;17.30;63.50;;;;;;5073327;28;939;-70
2023/04/05 07:26:42;;;;;;;;;;;17.30;63.50;;;;;;5073597;28;1996;-69
2023/04/05 07:29:08;;;;;;;;;;;17.30;63.50;;;;;;5075254;28;891;-69
2023/04/05 07:31:34;;;;;;;;;;;17.30;63.50;;;;;;5072576;28;1574;-69
2023/04/05 07:34:00;;;;;;;;;;;17.30;63.60;;;;;;5076520;28;870;-70
2023/04/05 07:36:26;;;;;;;;;;;17.30;63.50;;;;;;5080054;28;1276;-69
2023/04/05 07:38:52;;;;;;;;;;;17.30;63.60;;;;;;5075426;28;1382;-69
2023/04/05 07:41:19;;;;;;;;;;;17.30;63.60;;;;;;5075903;28;921;-69
2023/04/05 07:43:44;;;;;;;;;;;17.30;63.60;;;;;;5073287;28;819;-69
2023/04/05 07:46:10;;;;;;;;;;;17.30;63.50;;;;;;5075159;28;1905;-69
2023/04/05 07:48:35;;;;;;;;;;;17.30;63.50;;;;;;5079787;28;796;-69
2023/04/05 07:51:07;;;;;;;;;;;17.40;63.50;;;;;;5072718;28;875;-69
2023/04/05 07:53:33;;;;;;;;;;;17.40;63.50;;;;;;5072622;28;861;-69
2023/04/05 07:56:02;;;;;;;;;;;17.40;63.50;;;;;;5075737;28;1317;-69
2023/04/05 07:58:29;;;;;;;;;;;17.40;63.40;;;;;;5073804;28;874;-69
2023/04/05 08:01:01;;;;;;;;;;;17.40;63.30;;;;;;5074123;28;934;-68
2023/04/05 08:03:27;;;;;;;;;;;17.40;63.40;;;;;;5069873;28;1245;-69
2023/04/05 08:05:52;;;;;;;;;;;17.40;63.30;;;;;;5055318;28;1446;-69
2023/04/05 08:08:18;;;;;;;;;;;17.40;63.30;;;;;;5073036;28;1957;-69
2023/04/05 08:10:43;;;;;;;;;;;17.40;63.20;;;;;;5070252;28;1050;-69
2023/04/05 08:13:09;;;;;;;;;;;17.50;63.20;;;;;;5071857;28;838;-69
2023/04/05 08:15:34;;;;;;;;;;;17.50;63.20;;;;;;5074063;28;1245;-70
2023/04/05 08:18:00;;;;;;;;;;;17.50;63.20;;;;;;5073040;28;859;-70
2023/04/05 08:20:25;;;;;;;;;;;17.50;63.10;;;;;;5070023;28;855;-70
2023/04/05 08:22:51;;;;;;;;;;;17.50;63.10;;;;;;5072034;28;1025;-70
2023/04/05 08:25:16;;;;;;;;;;;17.50;63.10;;;;;;5077113;28;1260;-70
2023/04/05 08:27:42;;;;;;;;;;;17.50;63.10;;;;;;5073431;28;1894;-70
2023/04/05 08:30:07;;;;;;;;;;;17.50;63.10;;;;;;5076824;28;954;-70
2023/04/05 08:32:33;;;;;;;;;;;17.50;63.10;;;;;;5068625;28;880;-70
2023/04/05 08:34:59;;;;;;;;;;;17.50;63.10;;;;;;5070832;28;1329;-70
2023/04/05 08:37:24;;;;;;;;;;;17.50;63.10;;;;;;5073066;28;1219;-70
2023/04/05 08:39:50;;;;;;;;;;;17.50;63.10;;;;;;5072090;28;1230;-70
2023/04/05 08:42:16;;;;;;;;;;;17.50;63.10;;;;;;5073355;28;1988;-71
2023/04/05 08:44:41;;;;;;;;;;;17.50;63.10;;;;;;5071703;28;1382;-71
2023/04/05 08:47:07;;;;;;;;;;;17.50;63.10;;;;;;5072807;28;1930;-72
2023/04/05 08:49:33;;;;;;;;;;;17.50;63.10;;;;;;5057501;28;1238;-71
2023/04/05 08:51:59;;;;;;;;;;;17.50;63.10;;;;;;5068570;28;1051;-72
2023/04/05 08:54:24;;;;;;;;;;;17.50;63.10;;;;;;5065422;28;1300;-71
2023/04/05 08:56:50;;;;;;;;;;;17.50;63.10;;;;;;5067396;28;1349;-72
2023/04/05 08:59:16;;;;;;;;;;;17.50;63.10;;;;;;5070340;28;820;-72
2023/04/05 09:01:42;;;;;;;;;;;17.50;63.10;;;;;;5072313;28;1251;-70
2023/04/05 09:04:12;;;;;;;;;;;17.50;63.10;;;;;;5072163;28;970;-70
2023/04/05 09:06:38;;;;;;;;;;;17.50;63.10;;;;;;5074141;28;1981;-70
2023/04/05 09:09:06;;;;;;;;;;;17.50;63.10;;;;;;5072498;28;893;-70
2023/04/05 09:11:32;;;;;;;;;;;17.50;63.10;;;;;;5074868;28;1170;-69
2023/04/05 09:13:58;;;;;;;;;;;17.50;63.20;;;;;;5070865;28;995;-70
2023/04/05 09:16:23;;;;;;;;;;;17.50;63.20;;;;;;5068727;28;1528;-70
2023/04/05 09:18:49;;;;;;;;;;;17.50;63.20;;;;;;5058143;28;872;-70
2023/04/05 09:21:16;;;;;;;;;;;17.50;63.20;;;;;;5074253;28;1081;-70
2023/04/05 09:23:49;;;;;;;;;;;17.50;63.20;;;;;;5074155;28;1178;-70
2023/04/05 09:26:22;;;;;;;;;;;17.40;63.20;;;;;;5071538;28;1902;-70
2023/04/05 09:28:47;;;;;;;;;;;17.40;63.30;;;;;;5076581;28;2005;-70
2023/04/05 09:31:29;;;;;;;;;;;17.40;63.30;;;;;;5077820;28;1249;-70
2023/04/05 09:33:56;;;;;;;;;;;17.40;63.30;;;;;;5082187;28;1416;-70
2023/04/05 09:36:21;;;;;;;;;;;17.40;63.30;;;;;;5073072;28;1242;-70
2023/04/05 09:38:47;;;;;;;;;;;17.40;63.30;;;;;;5069236;28;1599;-70
2023/04/05 09:41:12;;;;;;;;;;;17.40;63.40;;;;;;5075073;28;1441;-69
2023/04/05 09:43:38;;;;;;;;;;;17.40;63.40;;;;;;5073562;28;1059;-70
2023/04/05 09:46:04;;;;;;;;;;;17.40;63.40;;;;;;5070821;28;1357;-70
2023/04/05 09:48:48;;;;;;;;;;;17.40;63.50;;;;;;5074258;28;1959;-70
2023/04/05 09:51:16;;;;;;;;;;;17.40;63.50;;;;;;5075212;28;875;-70
2023/04/05 09:54:00;;;;;;;;;;;17.40;63.50;;;;;;5075599;28;1090;-69
2023/04/05 09:56:26;;;;;;;;;;;17.40;63.60;;;;;;5075544;28;1267;-69
2023/04/05 09:58:52;;;;;;;;;;;17.30;63.50;;;;;;5077282;28;1020;-70
2023/04/05 10:01:21;;;;;;;;;;;17.30;63.60;;;;;;5077477;28;880;-70
2023/04/05 10:03:46;;;;;;;;;;;17.30;63.60;;;;;;5077439;28;855;-69
2023/04/05 10:06:13;;;;;;;;;;;17.30;63.60;;;;;;5071114;28;1469;-70
2023/04/05 10:08:38;;;;;;;;;;;17.30;63.60;;;;;;5061257;28;954;-70
2023/04/05 10:11:04;;;;;;;;;;;17.30;63.70;;;;;;5076409;28;801;-70
2023/04/05 10:13:29;;;;;;;;;;;17.30;63.70;;;;;;5075802;28;820;-70
2023/04/05 10:15:55;;;;;;;;;;;17.30;63.70;;;;;;5074806;28;1350;-71
2023/04/05 10:18:20;;;;;;;;;;;17.30;63.80;;;;;;5074750;28;875;-70
2023/04/05 10:20:47;;;;;;;;;;;17.30;63.70;;;;;;5077090;28;880;-68
2023/04/05 10:23:16;;;;;;;;;;;17.30;63.80;;;;;;5081377;28;943;-69
2023/04/05 10:25:44;;;;;;;;;;;17.30;63.80;;;;;;5073451;28;1274;-68
2023/04/05 10:28:10;;;;;;;;;;;17.30;63.80;;;;;;5072180;28;1902;-68
2023/04/05 10:30:39;;;;;;;;;;;17.30;63.80;;;;;;5074153;28;942;-70
2023/04/05 10:33:11;;;;;;;;;;;17.30;63.90;;;;;;5075481;28;959;-70
2023/04/05 10:35:36;;;;;;;;;;;17.30;64.00;;;;;;5075486;28;1284;-69
2023/04/05 10:38:14;;;;;;;;;;;17.30;64.00;;;;;;5081589;28;1067;-69
2023/04/05 10:40:39;;;;;;;;;;;17.30;64.00;;;;;;5080832;28;914;-69
2023/04/05 10:43:05;;;;;;;;;;;17.30;64.00;;;;;;5074484;28;1006;-69
2023/04/05 10:45:31;;;;;;;;;;;17.30;64.00;;;;;;5075103;28;1248;-69
2023/04/05 10:47:57;;;;;;;;;;;17.20;64.00;;;;;;5069387;28;1980;-69
2023/04/05 10:50:22;;;;;;;;;;;17.20;64.00;;;;;;5073849;28;2690;-69
2023/04/05 10:52:48;;;;;;;;;;;17.20;64.00;;;;;;5072273;28;1345;-71
2023/04/05 10:55:14;;;;;;;;;;;17.20;64.00;;;;;;5075797;28;1316;-72
2023/04/05 10:57:40;;;;;;;;;;;17.20;64.10;;;;;;5071690;28;1106;-71
2023/04/05 11:00:06;;;;;;;;;;;17.20;64.10;;;;;;5072519;28;1257;-70
2023/04/05 11:02:32;;;;;;;;;;;17.20;64.10;;;;;;5073552;28;1171;-69
2023/04/05 11:04:59;;;;;;;;;;;17.20;64.10;;;;;;5075933;28;1326;-67
2023/04/05 11:07:24;;;;;;;;;;;17.20;64.10;;;;;;5072026;28;1906;-70
2023/04/05 11:10:00;;;;;;;;;;;17.20;64.20;;;;;;5055329;28;1322;-69
2023/04/05 11:12:44;;;;;;;;;;;17.20;64.20;;;;;;5073338;28;864;-67
2023/04/05 11:15:26;;;;;;;;;;;17.20;64.30;;;;;;5078710;28;1319;-67
2023/04/05 11:18:10;;;;;;;;;;;17.20;64.20;;;;;;5072125;28;934;-68
2023/04/05 11:20:42;;;;;;;;;;;17.20;64.30;;;;;;5076188;28;871;-67
2023/04/05 11:23:11;;;;;;;;;;;17.20;64.30;;;;;;5071913;28;1564;-68
2023/04/05 11:25:37;;;;;;;;;;;17.10;64.20;;;;;;5069893;28;1352;-68
2023/04/05 11:28:04;;;;;;;;;;;17.20;64.30;;;;;;5072335;28;1970;-70
2023/04/05 11:30:46;;;;;;;;;;;17.20;64.30;;;;;;5070290;28;960;-69
2023/04/05 11:33:11;;;;;;;;;;;17.10;64.30;;;;;;5073881;28;807;-69
2023/04/05 11:35:38;;;;;;;;;;;17.20;64.40;;;;;;5073217;28;1292;-69
2023/04/05 11:38:03;;;;;;;;;;;17.10;64.30;;;;;;5076338;28;982;-71
2023/04/05 11:40:32;;;;;;;;;;;17.10;64.30;;;;;;5071777;28;1335;-71
2023/04/05 11:42:58;;;;;;;;;;;17.10;64.40;;;;;;5070604;28;938;-70
2023/04/05 11:45:24;;;;;;;;;;;17.10;64.40;;;;;;5075785;28;1356;-69
2023/04/05 11:47:49;;;;;;;;;;;17.10;64.40;;;;;;5068259;28;1876;-69
2023/04/05 11:50:15;;;;;;;;;;;17.10;64.40;;;;;;5068949;28;811;-69
2023/04/05 11:52:40;;;;;;;;;;;17.10;64.40;;;;;;5077399;28;1529;-69
2023/04/05 11:55:06;;;;;;;;;;;17.10;64.40;;;;;;5075160;28;1346;-69
2023/04/05 11:57:32;;;;;;;;;;;17.10;64.50;;;;;;5074640;28;946;-68
2023/04/05 11:59:57;;;;;;;;;;;17.10;64.50;;;;;;5073770;28;847;-68
2023/04/05 12:02:23;;;;;;;;;;;17.10;64.50;;;;;;5074474;28;784;-69
2023/04/05 12:04:57;;;;;;;;;;;17.10;65.30;;;;;;5072023;28;1334;-69
2023/04/05 12:07:24;;;;;;;;;;;17.10;64.50;;;;;;5072508;28;1970;-68
2023/04/05 12:09:58;;;;;;;;;;;17.10;64.50;;;;;;5069598;28;983;-68
2023/04/05 12:12:24;;;;;;;;;;;17.10;64.50;;;;;;5069492;28;1106;-68
2023/04/05 12:14:49;;;;;;;;;;;17.10;64.60;;;;;;5076338;28;1262;-68
2023/04/05 12:17:15;;;;;;;;;;;17.10;64.60;;;;;;5072876;28;832;-69
2023/04/05 12:19:40;;;;;;;;;;;17.10;64.60;;;;;;5072852;28;914;-68
2023/04/05 12:22:06;;;;;;;;;;;17.10;64.70;;;;;;5070881;28;900;-68
2023/04/05 12:24:31;;;;;;;;;;;17.10;64.70;;;;;;5068991;28;1256;-68
2023/04/05 12:26:57;;;;;;;;;;;17.10;64.70;;;;;;5072980;28;1905;-68
2023/04/05 12:29:22;;;;;;;;;;;17.10;64.70;;;;;;5077553;28;955;-68
2023/04/05 12:31:49;;;;;;;;;;;17.10;64.70;;;;;;5079039;28;971;-68
2023/04/05 12:34:14;;;;;;;;;;;17.10;64.70;;;;;;5075126;28;922;-68
2023/04/05 12:36:43;;;;;;;;;;;17.00;64.70;;;;;;5073154;28;1392;-68
2023/04/05 12:39:09;;;;;;;;;;;17.00;64.70;;;;;;5071459;28;1317;-68
2023/04/05 12:41:34;;;;;;;;;;;17.10;64.70;;;;;;5073019;28;892;-69
2023/04/05 12:44:15;;;;;;;;;;;17.00;64.70;;;;;;5074606;28;836;-68
2023/04/05 12:46:44;;;;;;;;;;;17.00;64.70;;;;;;5058421;28;2638;-69
2023/04/05 12:49:16;;;;;;;;;;;17.00;64.70;;;;;;5068755;28;1026;-69
2023/04/05 12:51:44;;;;;;;;;;;17.00;64.70;;;;;;5067902;28;993;-69
2023/04/05 12:54:11;;;;;;;;;;;17.00;64.70;;;;;;5075799;28;832;-68
2023/04/05 12:56:37;;;;;;;;;;;17.00;64.70;;;;;;5070546;28;1262;-68
2023/04/05 12:59:03;;;;;;;;;;;17.00;64.80;;;;;;5070456;28;944;-68
2023/04/05 13:01:29;;;;;;;;;;;17.10;64.80;;;;;;5072995;28;1487;-69
2023/04/05 13:03:55;;;;;;;;;;;17.10;64.70;;;;;;5070684;28;854;-69
2023/04/05 13:06:20;;;;;;;;;;;17.10;64.60;;;;;;5068954;28;1929;-69
2023/04/05 13:08:47;;;;;;;;;;;17.10;64.50;;;;;;5067468;28;1188;-69
2023/04/05 13:11:12;;;;;;;;;;;17.20;64.40;;;;;;5071483;28;1414;-69
2023/04/05 13:13:38;;;;;;;;;;;17.20;64.40;;;;;;5070895;28;898;-68
2023/04/05 13:16:03;;;;;;;;;;;17.20;64.20;;;;;;5056465;28;1372;-68
2023/04/05 13:18:29;;;;;;;;;;;17.20;64.20;;;;;;5073665;28;812;-68
2023/04/05 13:20:54;;;;;;;;;;;17.20;64.10;;;;;;5073156;28;928;-68
2023/04/05 13:23:20;;;;;;;;;;;17.20;63.90;;;;;;5069649;28;935;-68
2023/04/05 13:25:45;;;;;;;;;;;17.30;63.90;;;;;;5070031;28;1337;-69
2023/04/05 13:28:11;;;;;;;;;;;17.30;63.80;;;;;;5066642;28;1985;-69
2023/04/05 13:30:36;;;;;;;;;;;17.30;63.70;;;;;;5059593;28;1522;-70
2023/04/05 13:33:03;;;;;;;;;;;17.30;63.70;;;;;;5070629;28;1790;-70
2023/04/05 13:35:28;;;;;;;;;;;17.30;63.60;;;;;;5075516;28;1681;-71
2023/04/05 13:37:54;;;;;;;;;;;17.30;63.60;;;;;;5069565;28;1337;-69
2023/04/05 13:40:20;;;;;;;;;;;17.40;63.60;;;;;;5069592;28;1151;-68
2023/04/05 13:42:45;;;;;;;;;;;17.40;63.60;;;;;;5070151;28;1239;-69
2023/04/05 13:45:11;;;;;;;;;;;17.40;63.60;;;;;;5069477;28;1283;-69
2023/04/05 13:47:36;;;;;;;;;;;17.40;63.60;;;;;;5065406;28;1902;-68
2023/04/05 13:50:02;;;;;;;;;;;17.40;63.50;;;;;;5057316;28;945;-67
2023/04/05 13:52:27;;;;;;;;;;;17.40;63.50;;;;;;5068587;28;802;-68
2023/04/05 13:54:53;;;;;;;;;;;17.40;63.40;;;;;;5072632;28;1237;-67
2023/04/05 13:57:18;;;;;;;;;;;17.40;63.40;;;;;;5069971;28;1248;-67
2023/04/05 13:59:44;;;;;;;;;;;17.40;63.40;;;;;;5072533;28;907;-67
2023/04/05 14:02:10;;;;;;;;;;;17.40;63.30;;;;;;5071723;28;815;-67
2023/04/05 14:04:39;;;;;;;;;;;17.40;63.30;;;;;;5076477;28;1346;-67
2023/04/05 14:07:05;;;;;;;;;;;17.40;63.30;;;;;;5072500;28;1977;-67
2023/04/05 14:09:31;;;;;;;;;;;17.40;63.30;;;;;;5070511;28;925;-67
2023/04/05 14:11:57;;;;;;;;;;;17.40;63.20;;;;;;5074184;28;849;-67
2023/04/05 14:14:23;;;;;;;;;;;17.50;63.30;;;;;;5068530;28;874;-67
2023/04/05 14:16:48;;;;;;;;;;;17.50;63.30;;;;;;5075437;28;1219;-67
2023/04/05 14:19:15;;;;;;;;;;;17.50;63.30;;;;;;5060811;28;1331;-67
2023/04/05 14:21:40;;;;;;;;;;;17.50;63.30;;;;;;5071056;28;908;-67
2023/04/05 14:24:06;;;;;;;;;;;17.50;63.20;;;;;;5072259;28;971;-67
2023/04/05 14:26:31;;;;;;;;;;;17.50;63.20;;;;;;5072362;28;1914;-67
2023/04/05 14:28:57;;;;;;;;;;;17.50;63.20;;;;;;5073465;28;849;-67
2023/04/05 14:31:24;;;;;;;;;;;17.50;63.20;;;;;;5074092;28;965;-67